createdAt,value
2018-07-10T00:02:30.482Z,2.22
2018-07-10T00:07:29.570Z,2.67
2018-07-10T00:12:18.412Z,2.50
2018-07-10T00:14:48.498Z,3.07
2018-07-10T00:17:18.699Z,1.95
2018-07-10T00:19:48.952Z,2.20
2018-07-10T00:22:19.127Z,2.97
2018-07-10T00:24:49.320Z,2.22
2018-07-10T00:27:19.951Z,2.67
2018-07-10T00:29:50.105Z,2.00
2018-07-10T00:32:20.251Z,2.80
2018-07-10T00:34:50.494Z,2.60
2018-07-10T00:37:20.751Z,2.80
2018-07-10T00:39:50.958Z,2.50
2018-07-10T00:42:21.194Z,2.62
2018-07-10T00:44:51.575Z,2.42
2018-07-10T00:47:21.774Z,2.22
2018-07-10T00:49:52.026Z,2.30
2018-07-10T00:52:34.128Z,1.98
2018-07-10T00:55:04.387Z,4.62
2018-07-10T00:57:34.720Z,1.92
2018-07-10T01:00:04.938Z,2.52
2018-07-10T01:02:34.638Z,3.15
2018-07-10T01:05:04.882Z,2.52
2018-07-10T01:07:35.069Z,1.80
2018-07-10T01:10:05.223Z,2.98
2018-07-10T01:12:34.936Z,4.83
2018-07-10T01:15:05.172Z,1.95
2018-07-10T01:17:35.424Z,2.70
2018-07-10T01:20:05.695Z,3.30
2018-07-10T01:22:36.006Z,3.05
2018-07-10T01:25:06.210Z,3.50
2018-07-10T01:27:37.229Z,2.60
2018-07-10T01:30:07.499Z,2.55
2018-07-10T01:32:37.680Z,2.42
2018-07-10T01:35:07.981Z,3.40
2018-07-10T01:37:38.558Z,3.52
2018-07-10T01:40:08.811Z,1.90
2018-07-10T01:42:38.996Z,2.33
2018-07-10T01:45:09.241Z,3.15
2018-07-10T01:47:39.400Z,2.98
2018-07-10T01:50:10.544Z,3.05
2018-07-10T01:52:40.731Z,2.45
2018-07-10T01:55:11.036Z,1.62
2018-07-10T01:57:41.652Z,2.27
2018-07-10T02:00:12.338Z,3.60
2018-07-10T02:02:42.547Z,3.02
2018-07-10T02:05:12.805Z,3.53
2018-07-10T02:07:43.078Z,3.77
2018-07-10T02:10:12.834Z,2.35
2018-07-10T02:12:43.025Z,2.30
2018-07-10T02:15:13.150Z,1.47
2018-07-10T02:17:43.358Z,3.75
2018-07-10T02:20:13.629Z,2.87
2018-07-10T02:22:44.516Z,3.60
2018-07-10T02:25:14.822Z,3.17
2018-07-10T02:27:45.015Z,3.00
2018-07-10T02:30:15.379Z,2.58
2018-07-10T02:32:45.757Z,3.02
2018-07-10T02:35:16.596Z,2.42
2018-07-10T02:37:49.328Z,2.80
2018-07-10T02:40:19.554Z,2.47
2018-07-10T02:42:49.714Z,3.85
2018-07-10T02:45:20.035Z,2.95
2018-07-10T02:47:49.800Z,2.40
2018-07-10T02:50:20.028Z,1.77
2018-07-10T02:52:50.898Z,3.00
2018-07-10T02:55:21.118Z,3.17
2018-07-10T02:57:51.432Z,5.35
2018-07-10T03:00:21.773Z,2.98
2018-07-10T03:02:53.625Z,2.85
2018-07-10T03:05:23.882Z,3.17
2018-07-10T03:07:54.067Z,3.08
2018-07-10T03:10:24.293Z,4.15
2018-07-10T03:12:54.566Z,4.95
2018-07-10T03:15:24.751Z,2.33
2018-07-10T03:17:55.016Z,4.42
2018-07-10T03:20:25.263Z,3.70
2018-07-10T03:22:55.447Z,3.12
2018-07-10T03:25:25.613Z,2.87
2018-07-10T03:27:55.899Z,3.47
2018-07-10T03:30:26.023Z,2.52
2018-07-10T03:32:56.288Z,4.35
2018-07-10T03:35:26.522Z,3.25
2018-07-10T03:37:56.755Z,3.97
2018-07-10T03:40:30.639Z,2.22
2018-07-10T03:43:00.835Z,2.98
2018-07-10T03:45:31.033Z,4.80
2018-07-10T03:48:01.290Z,3.42
2018-07-10T03:50:33.728Z,3.27
2018-07-10T03:53:04.619Z,2.10
2018-07-10T03:55:38.030Z,2.90
2018-07-10T03:58:08.288Z,3.00
2018-07-10T04:00:38.711Z,2.52
2018-07-10T04:03:08.935Z,2.37
2018-07-10T04:05:39.185Z,4.08
2018-07-10T04:08:10.559Z,2.95
2018-07-10T04:13:19.528Z,2.72
2018-07-10T04:15:54.099Z,3.87
2018-07-10T04:18:28.083Z,4.00
2018-07-10T04:21:27.320Z,4.87
2018-07-10T04:24:17.715Z,4.60
2018-07-10T04:27:33.247Z,6.12
2018-07-10T04:30:13.461Z,4.80
2018-07-10T04:32:44.127Z,6.47
2018-07-10T04:35:18.013Z,4.85
2018-07-10T04:37:51.810Z,4.97
2018-07-10T04:40:22.214Z,4.37
2018-07-10T04:43:00.770Z,4.53
2018-07-10T04:45:40.895Z,4.63
2018-07-10T04:48:27.451Z,4.97
2018-07-10T04:51:09.055Z,5.20
2018-07-10T04:53:51.371Z,5.95
2018-07-10T04:56:22.112Z,5.28
2018-07-10T04:58:56.719Z,5.42
2018-07-10T05:01:34.864Z,4.22
2018-07-10T05:04:05.599Z,3.98
2018-07-10T05:06:38.713Z,4.78
2018-07-10T05:09:08.973Z,4.47
2018-07-10T05:11:43.636Z,4.92
2018-07-10T05:14:13.843Z,5.67
2018-07-10T05:16:44.035Z,5.00
2018-07-10T05:19:14.272Z,5.58
2018-07-10T05:21:44.494Z,4.67
2018-07-10T05:24:14.954Z,4.45
2018-07-10T05:26:46.452Z,4.97
2018-07-10T05:29:17.439Z,5.50
2018-07-10T05:31:47.592Z,6.03
2018-07-10T05:34:17.851Z,5.25
2018-07-10T05:36:48.120Z,6.43
2018-07-10T05:39:18.285Z,7.00
2018-07-10T05:41:48.861Z,7.08
2018-07-10T05:44:21.674Z,6.30
2018-07-10T05:46:51.872Z,5.85
2018-07-10T05:49:22.234Z,6.67
2018-07-10T05:51:53.253Z,5.72
2018-07-10T05:54:24.985Z,6.17
2018-07-10T05:56:55.150Z,7.17
2018-07-10T05:59:25.325Z,7.70
2018-07-10T06:01:56.236Z,7.45
2018-07-10T06:04:26.436Z,7.65
2018-07-10T06:06:56.189Z,9.08
2018-07-10T06:09:26.311Z,8.33
2018-07-10T06:11:56.492Z,8.60
2018-07-10T06:14:26.690Z,8.80
2018-07-10T06:16:56.838Z,7.12
2018-07-10T06:19:27.118Z,7.08
2018-07-10T06:21:57.312Z,8.40
2018-07-10T06:24:28.751Z,7.00
2018-07-10T06:27:03.240Z,8.45
2018-07-10T06:30:09.456Z,6.70
2018-07-10T06:32:54.848Z,6.85
2018-07-10T06:36:31.925Z,6.92
2018-07-10T06:39:13.205Z,8.43
2018-07-10T06:41:54.555Z,6.30
2018-07-10T06:44:26.070Z,7.05
2018-07-10T06:47:00.167Z,6.40
2018-07-10T06:49:33.920Z,8.68
2018-07-10T06:52:13.090Z,6.40
2018-07-10T06:55:19.080Z,6.83
2018-07-10T06:57:53.776Z,7.30
2018-07-10T07:00:23.974Z,9.83
2018-07-10T07:02:54.134Z,6.80
2018-07-10T07:05:24.322Z,6.20
2018-07-10T07:07:54.514Z,6.83
2018-07-10T07:10:25.864Z,8.93
2018-07-10T07:12:56.019Z,10.32
2018-07-10T07:15:26.234Z,7.10
2018-07-10T07:17:56.419Z,5.97
2018-07-10T07:20:26.560Z,6.67
2018-07-10T07:22:56.657Z,6.00
2018-07-10T07:25:26.801Z,5.65
2018-07-10T07:27:56.957Z,6.03
2018-07-10T07:30:27.191Z,6.78
2018-07-10T07:32:57.710Z,6.85
2018-07-10T07:35:27.914Z,7.40
2018-07-10T07:37:58.098Z,6.92
2018-07-10T07:40:28.275Z,7.42
2018-07-10T07:42:59.423Z,7.07
2018-07-10T07:45:29.636Z,7.12
2018-07-10T07:47:59.799Z,7.60
2018-07-10T07:50:30.013Z,5.97
2018-07-10T07:53:00.162Z,5.70
2018-07-10T07:55:30.360Z,6.72
2018-07-10T07:58:00.570Z,7.53
2018-07-10T08:00:30.704Z,8.75
2018-07-10T08:03:00.873Z,6.40
2018-07-10T08:05:31.111Z,7.15
2018-07-10T08:08:01.296Z,8.95
2018-07-10T08:10:31.506Z,8.33
2018-07-10T08:13:01.701Z,8.20
2018-07-10T08:15:31.854Z,11.40
2018-07-10T08:18:02.062Z,9.20
2018-07-10T08:20:32.259Z,8.68
2018-07-10T08:23:02.474Z,11.30
2018-07-10T08:25:32.664Z,8.50
2018-07-10T08:28:02.860Z,8.90
2018-07-10T08:30:33.091Z,7.95
2018-07-10T08:33:04.481Z,8.05
2018-07-10T08:35:34.720Z,7.58
2018-07-10T08:38:04.846Z,7.37
2018-07-10T08:40:34.518Z,6.53
2018-07-10T08:43:05.079Z,8.08
2018-07-10T08:45:35.278Z,5.55
2018-07-10T08:48:05.755Z,5.87
2018-07-10T08:50:35.933Z,5.33
2018-07-10T08:53:06.118Z,8.13
2018-07-10T08:55:36.287Z,7.85
2018-07-10T08:58:06.516Z,10.48
2018-07-10T09:00:36.684Z,7.78
2018-07-10T09:03:07.103Z,8.10
2018-07-10T09:05:37.248Z,9.68
2018-07-10T09:08:07.525Z,9.75
2018-07-10T09:10:37.685Z,9.90
2018-07-10T09:13:07.870Z,10.98
2018-07-10T09:15:38.064Z,8.43
2018-07-10T09:18:08.282Z,9.43
2018-07-10T09:20:46.359Z,9.38
2018-07-10T09:23:17.542Z,9.98
2018-07-10T09:25:48.687Z,10.18
2018-07-10T09:28:18.921Z,10.50
2018-07-10T09:30:49.108Z,9.83
2018-07-10T09:33:18.883Z,8.33
2018-07-10T09:35:48.980Z,10.53
2018-07-10T09:38:19.208Z,10.07
2018-07-10T09:40:49.375Z,9.05
2018-07-10T09:43:19.571Z,9.80
2018-07-10T09:45:50.077Z,8.83
2018-07-10T09:48:20.251Z,7.83
2018-07-10T09:50:50.392Z,8.90
2018-07-10T09:53:20.112Z,8.35
2018-07-10T09:55:50.378Z,8.43
2018-07-10T09:58:22.171Z,9.75
2018-07-10T10:00:59.759Z,8.33
2018-07-10T10:03:29.964Z,8.65
2018-07-10T10:06:00.279Z,8.65
2018-07-10T10:08:30.455Z,9.20
2018-07-10T10:11:00.564Z,9.40
2018-07-10T10:13:30.762Z,11.20
2018-07-10T10:16:00.934Z,10.45
2018-07-10T10:18:31.132Z,14.33
2018-07-10T10:21:01.364Z,12.60
2018-07-10T10:23:31.599Z,12.10
2018-07-10T10:26:01.789Z,12.65
2018-07-10T10:28:32.007Z,12.28
2018-07-10T10:31:02.204Z,13.35
2018-07-10T10:33:32.424Z,13.50
2018-07-10T10:36:02.563Z,13.88
2018-07-10T10:38:32.802Z,14.40
2018-07-10T10:41:04.534Z,14.23
2018-07-10T10:43:34.796Z,15.55
2018-07-10T10:46:04.982Z,15.75
2018-07-10T10:48:35.633Z,15.55
2018-07-10T10:51:06.008Z,16.43
2018-07-10T10:53:36.555Z,17.67
2018-07-10T10:56:06.717Z,15.53
2018-07-10T10:58:36.947Z,16.05
2018-07-10T11:01:07.147Z,16.85
2018-07-10T11:03:37.326Z,16.62
2018-07-10T11:06:07.583Z,15.97
2018-07-10T11:08:37.751Z,15.43
2018-07-10T11:11:07.954Z,15.70
2018-07-10T11:13:38.195Z,14.58
2018-07-10T11:16:08.451Z,13.90
2018-07-10T11:18:56.227Z,14.30
2018-07-10T11:22:43.078Z,14.23
2018-07-10T11:25:13.263Z,13.20
2018-07-10T11:27:59.770Z,13.90
2018-07-10T11:30:30.318Z,12.43
2018-07-10T11:33:00.957Z,11.90
2018-07-10T11:35:31.208Z,13.22
2018-07-10T11:38:06.407Z,13.05
2018-07-10T11:40:37.271Z,13.03
2018-07-10T11:43:09.444Z,12.53
2018-07-10T11:45:39.811Z,11.83
2018-07-10T11:48:10.699Z,11.53
2018-07-10T11:50:41.058Z,11.73
2018-07-10T11:53:11.593Z,12.40
2018-07-10T11:55:41.955Z,12.07
2018-07-10T11:58:13.002Z,11.78
2018-07-10T12:00:43.231Z,10.68
2018-07-10T12:03:46.110Z,11.65
2018-07-10T12:06:16.307Z,11.05
2018-07-10T12:08:53.581Z,12.47
2018-07-10T12:11:25.725Z,11.43
2018-07-10T12:13:55.412Z,10.28
2018-07-10T12:16:25.541Z,11.80
2018-07-10T12:18:55.659Z,11.15
2018-07-10T12:21:25.877Z,9.33
2018-07-10T12:23:56.042Z,9.55
2018-07-10T12:26:26.358Z,9.85
2018-07-10T12:28:56.500Z,9.88
2018-07-10T12:31:26.707Z,8.90
2018-07-10T12:33:57.050Z,10.93
2018-07-10T12:36:28.234Z,8.33
2018-07-10T12:38:58.376Z,7.97
2018-07-10T12:41:28.571Z,8.40
2018-07-10T12:43:58.658Z,7.50
2018-07-10T12:46:28.783Z,8.23
2018-07-10T12:48:58.911Z,8.40
2018-07-10T12:51:29.093Z,6.80
2018-07-10T12:53:59.233Z,7.72
2018-07-10T12:56:30.154Z,6.50
2018-07-10T12:59:00.339Z,6.27
2018-07-10T13:01:30.648Z,6.85
2018-07-10T13:04:00.859Z,6.75
2018-07-10T13:06:31.036Z,8.53
2018-07-10T13:09:02.196Z,6.85
2018-07-10T13:11:32.323Z,7.40
2018-07-10T13:14:02.478Z,6.72
2018-07-10T13:16:32.677Z,6.00
2018-07-10T13:19:02.875Z,6.55
2018-07-10T13:21:33.027Z,5.42
2018-07-10T13:24:03.176Z,5.10
2018-07-10T13:26:33.295Z,4.65
2018-07-10T13:29:03.443Z,5.83
2018-07-10T13:31:33.611Z,4.42
2018-07-10T13:34:03.761Z,4.75
2018-07-10T13:36:33.904Z,4.72
2018-07-10T13:39:05.474Z,4.55
2018-07-10T13:41:36.754Z,4.42
2018-07-10T13:44:07.017Z,4.45
2018-07-10T13:46:37.162Z,4.33
2018-07-10T13:49:07.290Z,6.10
2018-07-10T13:51:37.387Z,5.67
2018-07-10T13:54:07.563Z,5.45
2018-07-10T13:56:37.711Z,5.95
2018-07-10T13:59:07.961Z,4.67
2018-07-10T14:01:40.899Z,5.85
2018-07-10T14:04:11.135Z,5.10
2018-07-10T14:06:41.257Z,5.15
2018-07-10T14:09:11.489Z,6.70
2018-07-10T14:11:41.648Z,6.45
2018-07-10T14:14:11.828Z,5.92
2018-07-10T14:16:42.025Z,5.45
2018-07-10T14:19:12.125Z,5.40
2018-07-10T14:21:42.321Z,6.10
2018-07-10T14:24:12.488Z,5.15
2018-07-10T14:26:42.316Z,4.80
2018-07-10T14:29:12.486Z,3.58
2018-07-10T14:31:42.713Z,5.87
2018-07-10T14:34:13.018Z,6.42
2018-07-10T14:36:43.146Z,5.05
2018-07-10T14:39:13.374Z,3.98
2018-07-10T14:41:43.920Z,5.80
2018-07-10T14:44:14.605Z,3.80
2018-07-10T14:46:44.814Z,3.45
2018-07-10T14:49:15.130Z,5.20
2018-07-10T14:51:48.911Z,4.45
2018-07-10T14:54:19.110Z,3.95
2018-07-10T14:56:49.962Z,5.40
2018-07-10T14:59:20.174Z,5.80
2018-07-10T15:01:50.401Z,3.65
2018-07-10T15:04:20.643Z,4.90
2018-07-10T15:06:50.724Z,3.15
2018-07-10T15:09:20.860Z,3.55
2018-07-10T15:11:50.942Z,5.45
2018-07-10T15:14:21.047Z,4.40
2018-07-10T15:16:56.236Z,4.78
2018-07-10T15:19:26.476Z,4.63
2018-07-10T15:21:56.558Z,4.30
2018-07-10T15:24:26.767Z,5.60
2018-07-10T15:26:56.877Z,3.50
2018-07-10T15:29:29.639Z,5.08
2018-07-10T15:32:00.932Z,4.60
2018-07-10T15:34:31.091Z,3.67
2018-07-10T15:37:01.993Z,4.72
2018-07-10T15:39:32.259Z,4.20
2018-07-10T15:42:02.588Z,4.70
2018-07-10T15:44:34.643Z,3.08
2018-07-10T15:47:05.249Z,3.03
2018-07-10T15:49:35.664Z,3.35
2018-07-10T15:52:06.791Z,3.57
2018-07-10T15:54:37.462Z,3.00
2018-07-10T15:57:07.922Z,2.35
2018-07-10T15:59:38.404Z,3.62
2018-07-10T16:02:09.568Z,3.80
2018-07-10T16:04:39.949Z,3.30
2018-07-10T16:07:12.141Z,4.37
2018-07-10T16:09:42.671Z,4.08
2018-07-10T16:12:15.579Z,2.80
2018-07-10T16:14:47.123Z,2.58
2018-07-10T16:17:28.855Z,4.12
2018-07-10T16:20:06.350Z,3.58
2018-07-10T16:25:22.301Z,4.33
2018-07-10T16:27:59.428Z,2.30
2018-07-10T16:30:30.540Z,2.87
2018-07-10T16:33:01.821Z,2.62
2018-07-10T16:35:32.725Z,2.72
2018-07-10T16:38:04.452Z,5.97
2018-07-10T16:40:35.032Z,3.00
2018-07-10T16:43:11.915Z,4.45
2018-07-10T16:45:44.556Z,2.52
2018-07-10T16:48:53.349Z,2.52
2018-07-10T16:51:29.192Z,4.85
2018-07-10T16:54:01.499Z,3.27
2018-07-10T16:56:33.657Z,3.03
2018-07-10T16:59:04.723Z,2.87
2018-07-10T17:01:35.830Z,3.22
2018-07-10T17:04:06.752Z,2.37
2018-07-10T17:06:37.571Z,1.85
2018-07-10T17:09:09.311Z,3.22
2018-07-10T17:11:52.192Z,2.60
2018-07-10T17:14:23.534Z,3.67
2018-07-10T17:16:54.576Z,2.58
2018-07-10T17:19:25.099Z,2.40
2018-07-10T17:21:56.613Z,2.35
2018-07-10T17:24:26.972Z,2.50
2018-07-10T17:26:57.353Z,4.12
2018-07-10T17:29:27.803Z,2.70
2018-07-10T17:31:58.125Z,3.90
2018-07-10T17:34:28.334Z,2.87
2018-07-10T17:36:59.354Z,2.20
2018-07-10T17:39:29.872Z,3.15
2018-07-10T17:42:00.770Z,4.70
2018-07-10T17:44:32.684Z,3.10
2018-07-10T17:47:02.960Z,3.02
2018-07-10T17:49:33.177Z,2.90
2018-07-10T17:52:03.703Z,2.52
2018-07-10T17:54:36.460Z,2.97
2018-07-10T17:57:06.927Z,2.45
2018-07-10T17:59:37.101Z,3.20
2018-07-10T18:02:07.319Z,3.17
2018-07-10T18:04:37.460Z,2.20
2018-07-10T18:07:07.623Z,3.65
2018-07-10T18:09:37.791Z,3.02
2018-07-10T18:12:08.417Z,1.90
2018-07-10T18:14:38.617Z,2.72
2018-07-10T18:17:08.842Z,3.33
2018-07-10T18:19:39.261Z,2.87
2018-07-10T18:22:09.500Z,2.08
2018-07-10T18:24:39.670Z,3.35
2018-07-10T18:27:09.912Z,2.45
2018-07-10T18:29:40.031Z,2.52
2018-07-10T18:32:10.137Z,2.17
2018-07-10T18:34:40.365Z,3.37
2018-07-10T18:37:10.801Z,3.27
2018-07-10T18:39:40.924Z,1.87
2018-07-10T18:42:11.215Z,3.77
2018-07-10T18:44:41.347Z,1.82
2018-07-10T18:47:11.744Z,2.60
2018-07-10T18:49:42.042Z,2.17
2018-07-10T18:52:12.395Z,1.72
2018-07-10T18:54:42.692Z,2.00
2018-07-10T18:58:31.966Z,3.12
2018-07-10T19:02:19.559Z,2.27
2018-07-10T19:05:05.714Z,2.15
2018-07-10T19:07:40.762Z,2.52
2018-07-10T19:10:11.046Z,1.72
2018-07-10T19:12:43.090Z,2.83
2018-07-10T19:15:13.275Z,2.15
2018-07-10T19:17:43.600Z,2.62
2018-07-10T19:20:14.488Z,2.62
2018-07-10T19:24:03.539Z,2.02
2018-07-10T19:26:35.236Z,2.35
2018-07-10T19:29:20.821Z,2.65
2018-07-10T19:31:52.158Z,1.50
2018-07-10T19:34:46.273Z,2.33
2018-07-10T19:37:31.226Z,2.27
2018-07-10T19:40:02.807Z,2.17
2018-07-10T19:42:34.490Z,2.08
2018-07-10T19:45:06.835Z,3.85
2018-07-10T19:47:37.356Z,2.93
2018-07-10T19:50:17.078Z,2.87
2018-07-10T19:52:51.950Z,2.27
2018-07-10T19:55:27.895Z,2.60
2018-07-10T19:59:09.304Z,3.42
2018-07-10T20:01:57.324Z,2.65
2018-07-10T20:04:38.529Z,1.67
2018-07-10T20:08:16.655Z,1.90
2018-07-10T20:10:55.266Z,2.55
2018-07-10T20:13:41.722Z,2.20
2018-07-10T20:16:17.375Z,1.82
2018-07-10T20:20:13.832Z,1.92
2018-07-10T20:23:03.871Z,2.40
2018-07-10T20:26:57.930Z,2.60
2018-07-10T20:29:58.089Z,1.77
2018-07-10T20:33:40.875Z,2.30
2018-07-10T20:36:12.048Z,2.72
2018-07-10T20:38:42.314Z,2.17
2018-07-10T20:41:12.557Z,2.45
2018-07-10T20:43:48.630Z,3.90
2018-07-10T20:46:18.917Z,3.47
2018-07-10T20:49:02.998Z,1.70
2018-07-10T20:51:35.707Z,2.02
2018-07-10T20:54:16.281Z,2.40
2018-07-10T20:57:01.591Z,3.17
2018-07-10T20:59:45.446Z,3.60
2018-07-10T21:02:31.374Z,2.42
2018-07-10T21:05:14.967Z,1.60
2018-07-10T21:08:02.328Z,3.30
2018-07-10T21:10:40.780Z,2.77
2018-07-10T21:13:15.579Z,3.17
2018-07-10T21:15:59.090Z,2.27
2018-07-10T21:18:43.181Z,1.62
2018-07-10T21:21:25.269Z,2.30
2018-07-10T21:25:09.427Z,1.72
2018-07-10T21:28:50.318Z,2.40
2018-07-10T21:31:38.740Z,3.77
2018-07-10T21:34:19.947Z,2.87
2018-07-10T21:37:09.125Z,2.10
2018-07-10T21:39:52.344Z,1.80
2018-07-10T21:44:43.683Z,2.80
2018-07-10T21:48:27.334Z,2.00
2018-07-10T21:50:57.475Z,2.60
2018-07-10T21:53:27.583Z,1.90
2018-07-10T21:55:57.760Z,2.08
2018-07-10T21:58:27.942Z,2.27
2018-07-10T22:02:07.325Z,2.37
2018-07-10T22:04:39.121Z,2.50
2018-07-10T22:07:13.594Z,2.83
2018-07-10T22:09:44.304Z,2.45
2018-07-10T22:12:19.391Z,3.60
2018-07-10T22:14:49.554Z,2.05
2018-07-10T22:17:23.608Z,2.30
2018-07-10T22:19:54.968Z,4.60
2018-07-10T22:22:33.445Z,2.40
2018-07-10T22:25:06.628Z,2.58
2018-07-10T22:27:41.268Z,3.00
2018-07-10T22:30:21.020Z,2.50
2018-07-10T22:32:55.189Z,2.67
2018-07-10T22:35:27.577Z,3.00
2018-07-10T22:37:57.786Z,4.85
2018-07-10T22:40:27.954Z,3.12
2018-07-10T22:42:58.173Z,1.92
2018-07-10T22:45:29.515Z,3.47
2018-07-10T22:48:00.286Z,2.85
2018-07-10T22:50:30.510Z,2.70
2018-07-10T22:53:02.420Z,3.17
2018-07-10T22:55:33.849Z,3.00
2018-07-10T22:58:07.799Z,3.47
2018-07-10T23:00:40.235Z,2.92
2018-07-10T23:03:21.274Z,3.50
2018-07-10T23:05:52.797Z,3.40
2018-07-10T23:08:30.461Z,2.72
2018-07-10T23:11:02.155Z,2.83
2018-07-10T23:13:33.248Z,3.00
2018-07-10T23:16:03.473Z,3.37
2018-07-10T23:18:33.726Z,3.70
2018-07-10T23:21:04.747Z,3.60
2018-07-10T23:23:35.012Z,3.80
2018-07-10T23:26:05.176Z,5.28
2018-07-10T23:28:35.399Z,2.62
2018-07-10T23:31:06.144Z,4.20
2018-07-10T23:33:36.664Z,3.15
2018-07-10T23:36:07.603Z,3.00
2018-07-10T23:39:01.011Z,4.47
2018-07-10T23:41:43.710Z,3.65
2018-07-10T23:44:13.791Z,4.20
2018-07-10T23:46:56.599Z,3.97
2018-07-10T23:49:26.982Z,4.05
2018-07-10T23:52:32.776Z,3.08
2018-07-10T23:55:02.951Z,4.03
2018-07-10T23:57:33.115Z,4.33
